createdAt,value
2023-05-10T00:01:37.589Z,98601.31
2023-05-10T00:04:05.092Z,98588.78
2023-05-10T00:06:32.621Z,98592.84
2023-05-10T00:08:59.449Z,98590.09
2023-05-10T00:11:26.292Z,98584.31
2023-05-10T00:13:53.194Z,98585.09
2023-05-10T00:16:20.174Z,98587.22
2023-05-10T00:18:47.157Z,98582.06
2023-05-10T00:21:14.055Z,98582.53
2023-05-10T00:23:41.001Z,98584.09
2023-05-10T00:26:07.901Z,98578.09
2023-05-10T00:28:34.834Z,98571.53
2023-05-10T00:31:01.647Z,98573.13
2023-05-10T00:33:28.425Z,98564.94
2023-05-10T00:35:55.193Z,98561.91
2023-05-10T00:38:22.145Z,98556.72
2023-05-10T00:40:49.065Z,98554.25
2023-05-10T00:43:15.836Z,98549.59
2023-05-10T00:45:42.709Z,98550.63
2023-05-10T00:48:09.830Z,98546.81
2023-05-10T00:50:36.955Z,98549.78
2023-05-10T00:53:04.049Z,98546.16
2023-05-10T00:55:31.652Z,98542.34
2023-05-10T00:57:58.701Z,98534.97
2023-05-10T01:00:26.826Z,98540.66
2023-05-10T01:02:55.026Z,98527.84
2023-05-10T01:05:22.219Z,98532.97
2023-05-10T01:07:49.252Z,98526.41
2023-05-10T01:10:16.868Z,98530.69
2023-05-10T01:12:54.058Z,98527.41
2023-05-10T01:15:21.954Z,98534.44
2023-05-10T01:17:50.047Z,98536.03
2023-05-10T01:20:17.369Z,98531.94
2023-05-10T01:23:24.314Z,98533.53
2023-05-10T01:26:10.089Z,98529.97
2023-05-10T01:29:06.074Z,98535.06
2023-05-10T01:31:54.780Z,98530.66
2023-05-10T01:34:26.670Z,98538.50
2023-05-10T01:37:03.950Z,98533.84
2023-05-10T01:39:45.099Z,98536.75
2023-05-10T01:42:18.116Z,98536.66
2023-05-10T01:44:56.404Z,98537.19
2023-05-10T01:47:38.358Z,98533.06
2023-05-10T01:50:11.153Z,98539.50
2023-05-10T01:52:42.031Z,98537.06
2023-05-10T01:55:17.742Z,98528.03
2023-05-10T01:57:47.561Z,98524.41
2023-05-10T02:00:16.499Z,98519.50
2023-05-10T02:02:48.435Z,98525.19
2023-05-10T02:05:17.265Z,98511.56
2023-05-10T02:07:45.394Z,98515.84
2023-05-10T02:10:14.598Z,98516.91
2023-05-10T02:12:48.724Z,98514.94
2023-05-10T02:15:19.780Z,98518.94
2023-05-10T02:17:48.423Z,98514.84
2023-05-10T02:20:18.380Z,98507.19
2023-05-10T02:22:48.142Z,98512.06
2023-05-10T02:25:16.668Z,98509.84
2023-05-10T02:27:45.709Z,98512.81
2023-05-10T02:30:13.121Z,98507.06
2023-05-10T02:32:40.716Z,98508.97
2023-05-10T02:35:09.421Z,98500.75
2023-05-10T02:37:38.534Z,98504.53
2023-05-10T02:40:07.296Z,98513.13
2023-05-10T02:42:38.288Z,98509.88
2023-05-10T02:45:11.905Z,98504.69
2023-05-10T02:47:39.225Z,98513.00
2023-05-10T02:50:06.722Z,98513.00
2023-05-10T02:52:49.257Z,98509.41
2023-05-10T02:55:17.935Z,98510.47
2023-05-10T02:57:59.434Z,98502.25
2023-05-10T03:00:26.846Z,98508.25
2023-05-10T03:02:54.247Z,98504.72
2023-05-10T03:05:21.577Z,98507.09
2023-05-10T03:07:49.319Z,98500.59
2023-05-10T03:10:16.525Z,98506.00
2023-05-10T03:13:12.437Z,98499.22
2023-05-10T03:16:06.903Z,98504.31
2023-05-10T03:18:48.499Z,98508.56
2023-05-10T03:21:19.039Z,98507.19
2023-05-10T03:24:00.981Z,98502.50
2023-05-10T03:26:29.275Z,98503.31
2023-05-10T03:28:59.978Z,98507.59
2023-05-10T03:31:26.872Z,98505.59
2023-05-10T03:33:54.079Z,98507.75
2023-05-10T03:36:20.945Z,98503.97
2023-05-10T03:38:48.060Z,98516.94
2023-05-10T03:41:15.176Z,98512.00
2023-05-10T03:43:42.595Z,98510.94
2023-05-10T03:46:09.365Z,98514.47
2023-05-10T03:48:36.208Z,98511.44
2023-05-10T03:51:03.219Z,98510.84
2023-05-10T03:53:30.036Z,98515.69
2023-05-10T03:55:56.952Z,98512.41
2023-05-10T03:58:23.720Z,98515.13
2023-05-10T04:00:50.740Z,98519.72
2023-05-10T04:03:18.227Z,98522.66
2023-05-10T04:05:45.153Z,98517.50
2023-05-10T04:08:12.008Z,98521.50
2023-05-10T04:10:38.970Z,98524.00
2023-05-10T04:13:05.824Z,98523.16
2023-05-10T04:15:32.705Z,98526.69
2023-05-10T04:17:59.715Z,98530.56
2023-05-10T04:20:26.621Z,98529.00
2023-05-10T04:22:53.411Z,98526.03
2023-05-10T04:25:20.599Z,98530.97
2023-05-10T04:27:47.476Z,98526.38
2023-05-10T04:30:14.563Z,98526.94
2023-05-10T04:32:41.531Z,98529.41
2023-05-10T04:35:08.824Z,98529.47
2023-05-10T04:37:35.709Z,98526.56
2023-05-10T04:40:03.161Z,98532.56
2023-05-10T04:42:30.138Z,98535.59
2023-05-10T04:44:56.890Z,98536.16
2023-05-10T04:47:23.728Z,98532.38
2023-05-10T04:49:50.469Z,98540.84
2023-05-10T04:52:18.491Z,98538.44
2023-05-10T04:54:45.369Z,98541.22
2023-05-10T04:57:12.238Z,98538.63
2023-05-10T04:59:39.027Z,98535.19
2023-05-10T05:02:06.154Z,98536.88
2023-05-10T05:04:33.187Z,98538.59
2023-05-10T05:07:00.148Z,98540.09
2023-05-10T05:09:26.952Z,98542.63
2023-05-10T05:11:53.797Z,98548.13
2023-05-10T05:14:22.049Z,98544.91
2023-05-10T05:16:48.889Z,98545.81
2023-05-10T05:19:15.641Z,98550.28
2023-05-10T05:21:42.419Z,98547.63
2023-05-10T05:24:09.608Z,98556.16
2023-05-10T05:26:36.513Z,98550.56
2023-05-10T05:29:03.978Z,98562.03
2023-05-10T05:31:31.007Z,98558.06
2023-05-10T05:33:57.831Z,98562.25
2023-05-10T05:36:24.633Z,98549.31
2023-05-10T05:38:51.383Z,98559.13
2023-05-10T05:41:18.139Z,98567.66
2023-05-10T05:43:44.943Z,98564.50
2023-05-10T05:46:11.774Z,98565.12
2023-05-10T05:48:38.587Z,98561.13
2023-05-10T05:51:07.302Z,98568.03
2023-05-10T05:53:34.306Z,98574.88
2023-05-10T05:56:01.139Z,98571.94
2023-05-10T05:58:28.164Z,98585.09
2023-05-10T06:00:55.270Z,98582.97
2023-05-10T06:03:22.286Z,98587.12
2023-05-10T06:05:49.497Z,98588.56
2023-05-10T06:08:16.471Z,98582.91
2023-05-10T06:10:43.258Z,98582.69
2023-05-10T06:13:10.097Z,98591.50
2023-05-10T06:15:36.962Z,98590.47
2023-05-10T06:18:03.927Z,98584.81
2023-05-10T06:20:32.629Z,98590.28
2023-05-10T06:22:59.782Z,98586.78
2023-05-10T06:25:26.754Z,98589.28
2023-05-10T06:27:58.304Z,98589.88
2023-05-10T06:30:29.373Z,98591.53
2023-05-10T06:32:56.799Z,98597.59
2023-05-10T06:35:24.032Z,98593.81
2023-05-10T06:37:51.454Z,98594.41
2023-05-10T06:40:19.007Z,98591.44
2023-05-10T06:42:46.799Z,98593.94
2023-05-10T06:45:14.452Z,98598.06
2023-05-10T06:47:41.938Z,98593.47
2023-05-10T06:50:09.627Z,98606.31
2023-05-10T06:52:36.729Z,98599.81
2023-05-10T06:55:04.658Z,98594.66
2023-05-10T06:57:32.305Z,98599.34
2023-05-10T07:00:00.219Z,98591.47
2023-05-10T07:02:28.307Z,98595.34
2023-05-10T07:04:55.364Z,98591.28
2023-05-10T07:07:22.377Z,98590.75
2023-05-10T07:09:50.030Z,98594.84
2023-05-10T07:12:17.022Z,98592.72
2023-05-10T07:14:43.855Z,98583.72
2023-05-10T07:17:11.047Z,98594.91
2023-05-10T07:19:38.050Z,98581.56
2023-05-10T07:22:04.920Z,98580.72
2023-05-10T07:24:33.124Z,98577.47
2023-05-10T07:27:00.312Z,98574.19
2023-05-10T07:29:27.236Z,98580.19
2023-05-10T07:31:55.373Z,98582.09
2023-05-10T07:34:23.970Z,98579.34
2023-05-10T07:36:50.799Z,98588.66
2023-05-10T07:39:26.659Z,98585.88
2023-05-10T07:41:55.858Z,98584.50
2023-05-10T07:44:22.779Z,98587.22
2023-05-10T07:46:49.765Z,98586.34
2023-05-10T07:49:16.998Z,98590.97
2023-05-10T07:51:44.121Z,98590.41
2023-05-10T07:54:11.105Z,98595.56
2023-05-10T07:56:38.049Z,98593.31
2023-05-10T07:59:07.440Z,98596.88
2023-05-10T08:01:35.697Z,98594.94
2023-05-10T08:04:03.372Z,98595.16
2023-05-10T08:06:31.353Z,98597.87
2023-05-10T08:08:58.523Z,98592.63
2023-05-10T08:11:26.023Z,98595.03
2023-05-10T08:13:53.356Z,98596.66
2023-05-10T08:16:20.629Z,98598.81
2023-05-10T08:18:48.436Z,98596.03
2023-05-10T08:21:16.583Z,98595.44
2023-05-10T08:23:45.166Z,98597.03
2023-05-10T08:26:12.794Z,98589.31
2023-05-10T08:28:39.843Z,98601.28
2023-05-10T08:31:06.881Z,98585.38
2023-05-10T08:33:33.957Z,98585.84
2023-05-10T08:36:01.041Z,98593.44
2023-05-10T08:38:28.167Z,98586.78
2023-05-10T08:40:58.068Z,98596.03
2023-05-10T08:43:29.827Z,98600.88
2023-05-10T08:45:57.976Z,98581.34
2023-05-10T08:48:26.212Z,98587.31
2023-05-10T08:50:57.712Z,98596.56
2023-05-10T08:53:27.701Z,98587.72
2023-05-10T08:55:55.110Z,98588.19
2023-05-10T08:58:21.985Z,98584.19
2023-05-10T09:00:51.062Z,98595.06
2023-05-10T09:03:17.890Z,98588.63
2023-05-10T09:05:45.827Z,98593.44
2023-05-10T09:08:14.035Z,98595.25
2023-05-10T09:10:43.310Z,98587.16
2023-05-10T09:13:12.202Z,98583.78
2023-05-10T09:15:39.619Z,98575.16
2023-05-10T09:18:06.597Z,98573.09
2023-05-10T09:20:33.492Z,98570.81
2023-05-10T09:23:00.446Z,98583.03
2023-05-10T09:25:27.501Z,98574.34
2023-05-10T09:27:54.429Z,98575.22
2023-05-10T09:30:31.193Z,98569.03
2023-05-10T09:33:00.032Z,98573.84
2023-05-10T09:35:29.991Z,98579.53
2023-05-10T09:38:02.040Z,98571.41
2023-05-10T09:40:30.675Z,98570.50
2023-05-10T09:43:07.362Z,98574.00
2023-05-10T09:45:38.259Z,98575.53
2023-05-10T09:48:06.431Z,98569.41
2023-05-10T09:50:33.389Z,98569.84
2023-05-10T09:53:03.763Z,98569.16
2023-05-10T09:55:39.757Z,98575.56
2023-05-10T09:58:11.536Z,98567.66
2023-05-10T10:00:43.898Z,98568.22
2023-05-10T10:03:22.206Z,98568.63
2023-05-10T10:05:49.650Z,98561.31
2023-05-10T10:08:16.860Z,98564.75
2023-05-10T10:10:47.255Z,98561.25
2023-05-10T10:13:15.140Z,98559.50
2023-05-10T10:15:44.160Z,98565.25
2023-05-10T10:18:15.777Z,98554.72
2023-05-10T10:20:43.217Z,98561.56
2023-05-10T10:23:10.837Z,98554.53
2023-05-10T10:25:39.302Z,98554.41
2023-05-10T10:28:27.527Z,98546.63
2023-05-10T10:30:56.903Z,98548.97
2023-05-10T10:33:59.747Z,98544.97
2023-05-10T10:36:28.324Z,98543.59
2023-05-10T10:38:59.032Z,98542.03
2023-05-10T10:41:31.836Z,98536.41
2023-05-10T10:44:39.007Z,98533.19
2023-05-10T10:47:32.058Z,98523.75
2023-05-10T10:49:58.980Z,98535.59
2023-05-10T10:52:34.368Z,98535.19
2023-05-10T10:55:25.998Z,98535.25
2023-05-10T10:58:01.173Z,98527.81
2023-05-10T11:00:37.524Z,98531.63
2023-05-10T11:03:14.589Z,98529.87
2023-05-10T11:05:45.562Z,98530.56
2023-05-10T11:08:12.483Z,98528.84
2023-05-10T11:10:40.133Z,98524.78
2023-05-10T11:13:08.985Z,98529.31
2023-05-10T11:15:39.112Z,98523.97
2023-05-10T11:18:28.913Z,98524.66
2023-05-10T11:21:01.047Z,98512.66
2023-05-10T11:23:51.853Z,98520.28
2023-05-10T11:26:19.824Z,98514.78
2023-05-10T11:28:48.301Z,98515.25
2023-05-10T11:31:19.597Z,98518.66
2023-05-10T11:33:51.837Z,98512.34
2023-05-10T11:36:20.903Z,98512.16
2023-05-10T11:38:49.052Z,98511.50
2023-05-10T11:41:17.983Z,98515.25
2023-05-10T11:43:48.773Z,98511.66
2023-05-10T11:48:43.697Z,98508.41
2023-05-10T11:51:11.918Z,98506.94
2023-05-10T11:53:39.310Z,98508.25
2023-05-10T11:56:12.436Z,98499.00
2023-05-10T11:58:40.654Z,98500.47
2023-05-10T12:01:08.915Z,98501.09
2023-05-10T12:03:36.655Z,98504.47
2023-05-10T12:06:04.214Z,98498.09
2023-05-10T12:08:31.966Z,98499.06
2023-05-10T12:11:11.439Z,98497.44
2023-05-10T12:13:42.357Z,98500.97
2023-05-10T12:16:16.832Z,98500.91
2023-05-10T12:18:43.802Z,98493.72
2023-05-10T12:21:12.682Z,98499.41
2023-05-10T12:23:40.837Z,98496.12
2023-05-10T12:26:10.582Z,98499.53
2023-05-10T12:28:38.653Z,98496.41
2023-05-10T12:31:06.799Z,98499.81
2023-05-10T12:33:44.994Z,98501.13
2023-05-10T12:36:14.232Z,98498.81
2023-05-10T12:38:45.432Z,98501.13
2023-05-10T12:41:14.483Z,98497.88
2023-05-10T12:43:41.798Z,98495.56
2023-05-10T12:46:17.597Z,98488.56
2023-05-10T12:48:46.332Z,98484.78
2023-05-10T12:51:16.297Z,98481.75
2023-05-10T12:53:46.163Z,98476.69
2023-05-10T12:56:14.083Z,98487.53
2023-05-10T12:58:41.321Z,98479.84
2023-05-10T13:01:08.107Z,98482.41
2023-05-10T13:03:34.880Z,98474.53
2023-05-10T13:06:01.674Z,98477.44
2023-05-10T13:08:30.735Z,98479.19
2023-05-10T13:10:57.629Z,98475.59
2023-05-10T13:13:24.497Z,98473.66
2023-05-10T13:15:51.405Z,98468.44
2023-05-10T13:18:18.397Z,98472.38
2023-05-10T13:20:45.490Z,98462.09
2023-05-10T13:23:12.369Z,98467.78
2023-05-10T13:25:39.211Z,98469.84
2023-05-10T13:28:05.984Z,98468.06
2023-05-10T13:30:32.856Z,98464.59
2023-05-10T13:32:59.720Z,98463.13
2023-05-10T13:35:26.527Z,98462.78
2023-05-10T13:37:54.497Z,98458.50
2023-05-10T13:40:21.301Z,98453.78
2023-05-10T13:42:48.810Z,98451.00
2023-05-10T13:45:15.932Z,98447.44
2023-05-10T13:47:43.085Z,98449.41
2023-05-10T13:50:10.156Z,98448.59
2023-05-10T13:52:36.983Z,98446.16
2023-05-10T13:55:04.095Z,98447.31
2023-05-10T13:57:31.526Z,98446.03
2023-05-10T13:59:58.612Z,98441.16
2023-05-10T14:02:25.782Z,98439.09
2023-05-10T14:04:55.292Z,98438.94
2023-05-10T14:07:23.707Z,98436.84
2023-05-10T14:09:50.541Z,98437.50
2023-05-10T14:12:17.344Z,98433.81
2023-05-10T14:14:44.162Z,98434.50
2023-05-10T14:17:12.413Z,98428.81
2023-05-10T14:19:40.075Z,98437.00
2023-05-10T14:22:07.139Z,98433.72
2023-05-10T14:24:34.026Z,98434.41
2023-05-10T14:27:01.230Z,98427.59
2023-05-10T14:29:28.367Z,98442.09
2023-05-10T14:31:55.307Z,98432.84
2023-05-10T14:34:22.159Z,98428.00
2023-05-10T14:36:48.947Z,98428.69
2023-05-10T14:39:16.080Z,98427.41
2023-05-10T14:41:44.012Z,98427.72
2023-05-10T14:44:11.789Z,98423.81
2023-05-10T14:46:39.178Z,98420.72
2023-05-10T14:49:06.262Z,98424.75
2023-05-10T14:51:33.144Z,98422.47
2023-05-10T14:54:00.117Z,98423.75
2023-05-10T14:56:27.182Z,98420.63
2023-05-10T14:58:54.023Z,98420.63
2023-05-10T15:01:21.349Z,98423.06
2023-05-10T15:03:48.798Z,98425.84
2023-05-10T15:06:18.999Z,98425.38
2023-05-10T15:08:45.850Z,98421.31
2023-05-10T15:11:12.700Z,98422.34
2023-05-10T15:13:39.623Z,98424.94
2023-05-10T15:16:06.532Z,98425.94
2023-05-10T15:18:33.407Z,98420.63
2023-05-10T15:21:00.247Z,98424.88
2023-05-10T15:23:27.652Z,98422.28
2023-05-10T15:25:56.883Z,98424.09
2023-05-10T15:28:23.822Z,98423.94
2023-05-10T15:30:51.037Z,98425.28
2023-05-10T15:33:17.906Z,98435.06
2023-05-10T15:35:44.875Z,98429.72
2023-05-10T15:38:11.779Z,98428.44
2023-05-10T15:40:38.721Z,98420.47
2023-05-10T15:43:06.385Z,98424.22
2023-05-10T15:45:35.150Z,98419.34
2023-05-10T15:48:03.694Z,98415.63
2023-05-10T15:50:30.561Z,98421.03
2023-05-10T15:52:57.473Z,98430.31
2023-05-10T15:55:24.405Z,98419.94
2023-05-10T15:57:51.491Z,98426.13
2023-05-10T16:00:19.117Z,98415.22
2023-05-10T16:02:46.314Z,98419.78
2023-05-10T16:05:14.076Z,98419.31
2023-05-10T16:07:42.108Z,98420.00
2023-05-10T16:10:11.070Z,98420.66
2023-05-10T16:12:38.942Z,98417.41
2023-05-10T16:15:06.843Z,98418.03
2023-05-10T16:17:33.787Z,98416.41
2023-05-10T16:20:01.259Z,98416.75
2023-05-10T16:22:28.895Z,98411.06
2023-05-10T16:24:57.478Z,98405.84
2023-05-10T16:27:24.306Z,98414.81
2023-05-10T16:29:51.170Z,98409.63
2023-05-10T16:32:17.985Z,98408.31
2023-05-10T16:34:44.862Z,98415.00
2023-05-10T16:37:11.770Z,98411.28
2023-05-10T16:39:38.644Z,98419.09
2023-05-10T16:42:05.733Z,98417.47
2023-05-10T16:44:32.651Z,98420.88
2023-05-10T16:46:59.551Z,98423.94
2023-05-10T16:49:26.762Z,98422.66
2023-05-10T16:51:53.716Z,98424.94
2023-05-10T16:54:21.990Z,98428.84
2023-05-10T16:56:48.893Z,98431.13
2023-05-10T16:59:16.473Z,98427.88
2023-05-10T17:01:43.682Z,98436.47
2023-05-10T17:04:10.589Z,98432.44
2023-05-10T17:06:37.713Z,98433.09
2023-05-10T17:09:05.702Z,98431.78
2023-05-10T17:11:32.836Z,98434.06
2023-05-10T17:14:01.443Z,98434.06
2023-05-10T17:16:29.927Z,98433.06
2023-05-10T17:18:56.868Z,98435.69
2023-05-10T17:21:23.729Z,98432.78
2023-05-10T17:23:50.575Z,98434.22
2023-05-10T17:26:17.447Z,98434.88
2023-05-10T17:28:44.305Z,98439.44
2023-05-10T17:31:11.807Z,98442.03
2023-05-10T17:33:38.833Z,98438.28
2023-05-10T17:36:05.947Z,98444.44
2023-05-10T17:38:32.892Z,98441.84
2023-05-10T17:40:59.747Z,98438.59
2023-05-10T17:43:26.765Z,98454.19
2023-05-10T17:45:53.642Z,98446.34
2023-05-10T17:48:20.465Z,98450.41
2023-05-10T17:50:50.125Z,98456.56
2023-05-10T17:53:16.997Z,98449.91
2023-05-10T17:55:43.918Z,98451.69
2023-05-10T17:58:12.133Z,98451.50
2023-05-10T18:00:39.343Z,98450.53
2023-05-10T18:03:06.297Z,98455.88
2023-05-10T18:05:39.501Z,98456.84
2023-05-10T18:08:07.547Z,98458.31
2023-05-10T18:10:34.678Z,98457.31
2023-05-10T18:13:02.679Z,98456.31
2023-05-10T18:15:29.657Z,98460.53
2023-05-10T18:17:57.056Z,98464.56
2023-05-10T18:20:24.489Z,98459.69
2023-05-10T18:22:51.825Z,98465.03
2023-05-10T18:25:19.071Z,98464.81
2023-05-10T18:27:46.949Z,98472.12
2023-05-10T18:30:14.771Z,98469.16
2023-05-10T18:32:43.296Z,98472.53
2023-05-10T18:35:12.384Z,98475.44
2023-05-10T18:37:40.154Z,98480.78
2023-05-10T18:40:14.723Z,98475.59
2023-05-10T18:42:42.947Z,98474.91
2023-05-10T18:45:11.893Z,98482.97
2023-05-10T18:47:39.842Z,98480.03
2023-05-10T18:50:08.527Z,98483.25
2023-05-10T18:52:37.777Z,98483.06
2023-05-10T18:55:07.812Z,98490.66
2023-05-10T18:57:41.343Z,98495.16
2023-05-10T19:00:12.482Z,98500.78
2023-05-10T19:02:41.396Z,98508.38
2023-05-10T19:05:09.770Z,98509.31
2023-05-10T19:07:38.746Z,98512.47
2023-05-10T19:10:07.654Z,98510.66
2023-05-10T19:12:36.314Z,98507.22
2023-05-10T19:15:04.893Z,98505.38
2023-05-10T19:17:37.097Z,98511.50
2023-05-10T19:20:10.785Z,98512.13
2023-05-10T19:22:51.527Z,98511.09
2023-05-10T19:25:29.603Z,98503.78
2023-05-10T19:27:58.204Z,98512.97
2023-05-10T19:30:26.951Z,98513.09
2023-05-10T19:32:56.349Z,98514.84
2023-05-10T19:35:27.873Z,98515.47
2023-05-10T19:37:55.811Z,98518.31
2023-05-10T19:40:23.345Z,98517.28
2023-05-10T19:42:53.458Z,98523.41
2023-05-10T19:45:22.426Z,98529.03
2023-05-10T19:47:51.092Z,98529.66
2023-05-10T19:50:19.404Z,98517.63
2023-05-10T19:52:48.155Z,98514.97
2023-05-10T19:55:26.907Z,98512.34
2023-05-10T19:57:54.515Z,98524.88
2023-05-10T20:00:22.272Z,98518.66
2023-05-10T20:02:50.607Z,98525.06
2023-05-10T20:05:19.315Z,98523.75
2023-05-10T20:07:47.327Z,98521.38
2023-05-10T20:10:15.834Z,98527.78
2023-05-10T20:12:51.637Z,98526.78
2023-05-10T20:15:20.994Z,98529.81
2023-05-10T20:17:49.430Z,98525.72
2023-05-10T20:20:18.342Z,98526.94
2023-05-10T20:22:49.586Z,98531.13
2023-05-10T20:25:18.074Z,98527.03
2023-05-10T20:27:45.925Z,98527.97
2023-05-10T20:30:13.711Z,98531.00
2023-05-10T20:32:41.780Z,98525.81
2023-05-10T20:35:12.387Z,98528.63
2023-05-10T20:37:40.288Z,98525.69
2023-05-10T20:40:08.886Z,98530.16
2023-05-10T20:42:36.836Z,98536.75
2023-05-10T20:45:05.056Z,98538.47
2023-05-10T20:47:33.283Z,98537.66
2023-05-10T20:50:00.930Z,98533.69
2023-05-10T20:52:28.401Z,98535.09
2023-05-10T20:54:55.218Z,98522.78
2023-05-10T20:57:22.114Z,98524.50
2023-05-10T20:59:50.581Z,98527.84
2023-05-10T21:02:17.457Z,98528.44
2023-05-10T21:04:44.729Z,98519.69
2023-05-10T21:07:12.273Z,98524.97
2023-05-10T21:09:39.085Z,98527.47
2023-05-10T21:12:06.218Z,98525.38
2023-05-10T21:14:33.148Z,98523.25
2023-05-10T21:17:00.050Z,98520.81
2023-05-10T21:19:26.986Z,98527.19
2023-05-10T21:21:56.175Z,98526.47
2023-05-10T21:24:23.440Z,98524.81
2023-05-10T21:26:50.306Z,98529.56
2023-05-10T21:29:17.183Z,98526.28
2023-05-10T21:31:44.068Z,98519.78
2023-05-10T21:34:11.088Z,98520.38
2023-05-10T21:36:37.936Z,98523.41
2023-05-10T21:39:05.040Z,98530.31
2023-05-10T21:41:31.898Z,98523.78
2023-05-10T21:43:58.842Z,98526.81
2023-05-10T21:46:25.826Z,98528.22
2023-05-10T21:48:52.748Z,98527.47
2023-05-10T21:51:19.694Z,98525.84
2023-05-10T21:53:46.504Z,98528.38
2023-05-10T21:56:13.525Z,98529.78
2023-05-10T21:58:40.430Z,98522.16
2023-05-10T22:01:07.420Z,98528.78
2023-05-10T22:03:34.422Z,98534.84
2023-05-10T22:06:01.315Z,98531.31
2023-05-10T22:08:28.160Z,98534.62
2023-05-10T22:10:55.415Z,98534.12
2023-05-10T22:13:22.293Z,98530.34
2023-05-10T22:15:49.461Z,98527.88
2023-05-10T22:18:16.313Z,98533.16
2023-05-10T22:20:46.629Z,98530.69
2023-05-10T22:23:13.845Z,98529.63
2023-05-10T22:25:40.880Z,98522.81
2023-05-10T22:28:09.256Z,98525.31
2023-05-10T22:30:36.318Z,98528.94
2023-05-10T22:33:03.371Z,98525.38
2023-05-10T22:35:30.414Z,98528.38
2023-05-10T22:37:57.214Z,98525.72
2023-05-10T22:40:24.111Z,98529.84
2023-05-10T22:42:50.962Z,98528.78
2023-05-10T22:45:17.835Z,98527.44
2023-05-10T22:47:44.664Z,98531.59
2023-05-10T22:50:12.508Z,98533.28
2023-05-10T22:52:39.479Z,98526.47
2023-05-10T22:55:07.244Z,98526.47
2023-05-10T22:57:34.416Z,98530.59
2023-05-10T23:00:01.331Z,98534.22
2023-05-10T23:02:28.153Z,98527.09
2023-05-10T23:04:54.981Z,98532.59
2023-05-10T23:07:21.809Z,98531.50
2023-05-10T23:09:48.966Z,98526.59
2023-05-10T23:12:15.831Z,98533.19
2023-05-10T23:14:42.718Z,98535.41
2023-05-10T23:17:09.581Z,98535.69
2023-05-10T23:19:36.402Z,98525.09
2023-05-10T23:22:03.297Z,98533.88
2023-05-10T23:24:30.180Z,98525.16
2023-05-10T23:26:57.002Z,98528.44
2023-05-10T23:29:26.314Z,98537.47
2023-05-10T23:31:53.232Z,98534.50
2023-05-10T23:34:20.004Z,98534.53
2023-05-10T23:36:46.881Z,98532.38
2023-05-10T23:39:13.812Z,98529.41
2023-05-10T23:41:40.658Z,98529.16
2023-05-10T23:44:07.454Z,98527.28
2023-05-10T23:46:34.385Z,98528.94
2023-05-10T23:49:01.197Z,98531.41
2023-05-10T23:51:28.304Z,98522.94
2023-05-10T23:53:56.223Z,98535.28
2023-05-10T23:56:23.082Z,98531.78
2023-05-10T23:58:49.919Z,98537.00
